Terminal Aerodrome Forecast
Issued by NWS Omaha/Valley, NE

Home | Current Version | Previous Version | Text Only | Print | Product List | Glossary Off
Versions: 1 2 3 4 5 6 7 8 9 10 11 12 13 14 15 16 17 18 19 20 21 22 23 24 25 26 27 28 29 30 31 32 33 34 35 36 37 38 39 40 41 42

000
FTUS43 KOAX 301137
TAFOFK
TAF
KOFK 301137Z 3012/0112 12011KT P6SM BKN090
      TEMPO 3012/3015 6SM -SHRA OVC040
     FM301500 16014G21KT P6SM BKN050
     FM302300 18011KT P6SM BKN120 PROB30 0100/0104 3SM TSRA
      OVC025CB=

USA.gov is the U.S. government's official web portal to all federal, state and local government web resources and services.